AZG10T VCBI-VTBD
Flight info
| Callsign | AZG10T |
|---|---|
| Flight time | 2h 56m |
| Altitude | 35000 |
| Route | DORTA DCT ESPAP P762 DWI L877 MIGAR L524 IBETO WEHHA3A |
| Aircraft | B77L/H-SDE1E2E3FGHIJ2J3J4J5M1RWXY/LB1D1 |
Departure
| Time | 2026-04-23 22:00 |
|---|---|
| Airport | Bandaranaike International Colombo Airport (VCBI) |
Arrival
| Time | 2026-04-24 00:56 |
|---|---|
| Airport | Don Mueang International Airport (VTBD) |
| Time | Latitude | Longitude | Altitude | Speed | Heading |
|---|---|---|---|---|---|
| 2026-04-23 21:49 | 7.17337 | 79.88317 | 38 ft | 0 kts | 36° |
| 2026-04-23 21:50 | 7.17321 | 79.88307 | 35 ft | 4 kts | 20° |
| 2026-04-23 21:50 | 7.17296 | 79.88303 | 38 ft | 4 kts | 342° |
| 2026-04-23 21:51 | 7.17276 | 79.88316 | 38 ft | 2 kts | 307° |
| 2026-04-23 21:51 | 7.17275 | 79.88317 | 38 ft | 0 kts | 306° |
| 2026-04-23 21:54 | 7.17277 | 79.88314 | 36 ft | 3 kts | 306° |
| 2026-04-23 21:54 | 7.17304 | 79.88272 | 38 ft | 9 kts | 301° |
| 2026-04-23 21:54 | 7.17335 | 79.88216 | 38 ft | 10 kts | 298° |
| 2026-04-23 21:55 | 7.17371 | 79.88147 | 38 ft | 12 kts | 297° |
| 2026-04-23 21:55 | 7.17379 | 79.88059 | 38 ft | 14 kts | 251° |
| 2026-04-23 21:55 | 7.17304 | 79.87991 | 37 ft | 16 kts | 213° |
| 2026-04-23 21:55 | 7.17208 | 79.87925 | 36 ft | 18 kts | 215° |
| 2026-04-23 21:56 | 7.17106 | 79.87851 | 37 ft | 18 kts | 216° |
| 2026-04-23 21:56 | 7.17012 | 79.87781 | 37 ft | 16 kts | 216° |
| 2026-04-23 21:56 | 7.16933 | 79.87723 | 37 ft | 12 kts | 216° |
| 2026-04-23 21:56 | 7.16877 | 79.87682 | 37 ft | 7 kts | 217° |
| 2026-04-23 21:57 | 7.16850 | 79.87655 | 37 ft | 4 kts | 231° |
| 2026-04-23 21:57 | 7.16835 | 79.87628 | 37 ft | 5 kts | 249° |
| 2026-04-23 21:57 | 7.16836 | 79.87595 | 37 ft | 5 kts | 288° |
| 2026-04-23 21:57 | 7.16857 | 79.87564 | 37 ft | 6 kts | 309° |
| 2026-04-23 21:58 | 7.16898 | 79.87513 | 37 ft | 5 kts | 311° |
| 2026-04-23 21:58 | 7.16905 | 79.87508 | 38 ft | 6 kts | 322° |
| 2026-04-23 21:58 | 7.16951 | 79.87504 | 39 ft | 5 kts | 15° |
| 2026-04-23 21:58 | 7.16991 | 79.87532 | 37 ft | 16 kts | 41° |
| 2026-04-23 21:59 | 7.17235 | 79.87721 | 38 ft | 80 kts | 37° |
| 2026-04-23 21:59 | 7.17871 | 79.88205 | 41 ft | 147 kts | 37° |
| 2026-04-23 21:59 | 7.18811 | 79.88932 | 207 ft | 185 kts | 38° |
| 2026-04-23 22:00 | 7.20689 | 79.90960 | 1175 ft | 208 kts | 67° |
| 2026-04-23 22:00 | 7.20869 | 79.92419 | 1684 ft | 216 kts | 95° |
| 2026-04-23 22:00 | 7.20755 | 79.93997 | 1902 ft | 242 kts | 93° |
| 2026-04-23 22:00 | 7.20674 | 79.95750 | 2402 ft | 256 kts | 92° |
| 2026-04-23 22:01 | 7.20596 | 79.97578 | 3052 ft | 265 kts | 92° |
| 2026-04-23 22:01 | 7.20728 | 79.99446 | 3716 ft | 272 kts | 81° |
| 2026-04-23 22:01 | 7.21066 | 80.01319 | 4507 ft | 271 kts | 80° |
| 2026-04-23 22:01 | 7.21399 | 80.03195 | 4986 ft | 275 kts | 81° |
| 2026-04-23 22:02 | 7.21715 | 80.05108 | 5008 ft | 278 kts | 81° |
| 2026-04-23 22:02 | 7.22018 | 80.07021 | 5016 ft | 275 kts | 82° |
| 2026-04-23 22:02 | 7.22306 | 80.08919 | 5009 ft | 273 kts | 82° |
| 2026-04-23 22:02 | 7.22591 | 80.10808 | 5020 ft | 274 kts | 82° |
| 2026-04-23 22:03 | 7.22877 | 80.12714 | 5016 ft | 276 kts | 82° |
| 2026-04-23 22:03 | 7.23166 | 80.14626 | 5028 ft | 275 kts | 82° |
| 2026-04-23 22:03 | 7.23452 | 80.16542 | 5023 ft | 277 kts | 82° |
| 2026-04-23 22:03 | 7.23737 | 80.18451 | 5015 ft | 276 kts | 82° |
| 2026-04-23 22:04 | 7.24025 | 80.20364 | 5222 ft | 275 kts | 82° |
| 2026-04-23 22:04 | 7.24314 | 80.22273 | 5981 ft | 278 kts | 82° |
| 2026-04-23 22:04 | 7.24608 | 80.24208 | 6770 ft | 280 kts | 82° |
| 2026-04-23 22:04 | 7.24905 | 80.26157 | 7501 ft | 284 kts | 82° |
| 2026-04-23 22:05 | 7.25199 | 80.28104 | 8119 ft | 287 kts | 82° |
| 2026-04-23 22:05 | 7.25503 | 80.30143 | 8819 ft | 292 kts | 81° |
| 2026-04-23 22:05 | 7.25807 | 80.32141 | 9547 ft | 294 kts | 81° |
| 2026-04-23 22:05 | 7.26121 | 80.34211 | 10213 ft | 298 kts | 81° |
| 2026-04-23 22:06 | 7.26437 | 80.36307 | 10545 ft | 317 kts | 81° |
| 2026-04-23 22:06 | 7.26780 | 80.38584 | 10733 ft | 340 kts | 81° |
| 2026-04-23 22:06 | 7.27147 | 80.41022 | 10917 ft | 364 kts | 81° |
| 2026-04-23 22:06 | 7.27539 | 80.43588 | 11394 ft | 376 kts | 80° |
| 2026-04-23 22:07 | 7.28197 | 80.46159 | 11980 ft | 383 kts | 71° |
| 2026-04-23 22:07 | 7.29134 | 80.48694 | 12738 ft | 388 kts | 68° |
| 2026-04-23 22:07 | 7.30135 | 80.51228 | 13609 ft | 390 kts | 68° |
| 2026-04-23 22:07 | 7.31123 | 80.53779 | 14456 ft | 392 kts | 69° |
| 2026-04-23 22:08 | 7.32090 | 80.56361 | 15235 ft | 396 kts | 69° |
| 2026-04-23 22:08 | 7.33043 | 80.58977 | 15961 ft | 400 kts | 69° |
| 2026-04-23 22:08 | 7.33995 | 80.61621 | 16672 ft | 404 kts | 69° |
| 2026-04-23 22:08 | 7.34954 | 80.64291 | 17344 ft | 407 kts | 69° |
| 2026-04-23 22:09 | 7.35911 | 80.66981 | 17999 ft | 411 kts | 69° |
| 2026-04-23 22:09 | 7.36874 | 80.69707 | 18656 ft | 413 kts | 69° |
| 2026-04-23 22:09 | 7.37842 | 80.72448 | 19264 ft | 417 kts | 70° |
| 2026-04-23 22:09 | 7.38806 | 80.75180 | 19807 ft | 422 kts | 70° |
| 2026-04-23 22:10 | 7.39796 | 80.77980 | 20336 ft | 427 kts | 70° |
| 2026-04-23 22:10 | 7.40798 | 80.80814 | 20882 ft | 430 kts | 69° |
| 2026-04-23 22:10 | 7.41805 | 80.83662 | 21453 ft | 433 kts | 70° |
| 2026-04-23 22:10 | 7.42821 | 80.86533 | 21955 ft | 437 kts | 70° |
| 2026-04-23 22:11 | 7.43850 | 80.89426 | 22445 ft | 440 kts | 69° |
| 2026-04-23 22:11 | 7.44890 | 80.92342 | 22937 ft | 444 kts | 70° |
| 2026-04-23 22:11 | 7.45584 | 80.94287 | 23246 ft | 446 kts | 70° |
| 2026-04-23 22:11 | 7.46635 | 80.97236 | 23741 ft | 448 kts | 70° |
| 2026-04-23 22:12 | 7.47692 | 81.00201 | 24207 ft | 451 kts | 70° |
| 2026-04-23 22:12 | 7.48753 | 81.03182 | 24669 ft | 453 kts | 70° |
| 2026-04-23 22:12 | 7.49820 | 81.06186 | 25082 ft | 457 kts | 70° |
| 2026-04-23 22:12 | 7.50899 | 81.09221 | 25481 ft | 461 kts | 70° |
| 2026-04-23 22:13 | 7.51984 | 81.12272 | 25867 ft | 464 kts | 70° |
| 2026-04-23 22:13 | 7.53074 | 81.15347 | 26244 ft | 467 kts | 70° |
| 2026-04-23 22:13 | 7.54251 | 81.18411 | 26612 ft | 469 kts | 64° |
| 2026-04-23 22:13 | 7.55906 | 81.21262 | 26885 ft | 473 kts | 56° |
| 2026-04-23 22:14 | 7.57814 | 81.23967 | 27185 ft | 477 kts | 54° |
| 2026-04-23 22:14 | 7.59767 | 81.26687 | 27545 ft | 480 kts | 54° |
| 2026-04-23 22:14 | 7.61705 | 81.29444 | 27889 ft | 483 kts | 56° |
| 2026-04-23 22:14 | 7.63620 | 81.32245 | 28213 ft | 487 kts | 56° |
| 2026-04-23 22:15 | 7.65524 | 81.35084 | 28547 ft | 490 kts | 57° |
| 2026-04-23 22:15 | 7.67438 | 81.37942 | 28877 ft | 493 kts | 57° |
| 2026-04-23 22:15 | 7.69366 | 81.40819 | 29174 ft | 497 kts | 57° |
| 2026-04-23 22:15 | 7.71284 | 81.43686 | 29452 ft | 500 kts | 57° |
| 2026-04-23 22:16 | 7.73224 | 81.46609 | 29721 ft | 503 kts | 59° |
| 2026-04-23 22:16 | 7.74824 | 81.49747 | 29943 ft | 505 kts | 69° |
| 2026-04-23 22:16 | 7.76003 | 81.53089 | 30211 ft | 507 kts | 72° |
| 2026-04-23 22:16 | 7.77099 | 81.56479 | 30562 ft | 507 kts | 73° |
| 2026-04-23 22:17 | 7.78184 | 81.59857 | 31031 ft | 505 kts | 73° |
| 2026-04-23 22:17 | 7.79287 | 81.63212 | 31511 ft | 503 kts | 72° |
| 2026-04-23 22:17 | 7.80418 | 81.66547 | 31935 ft | 502 kts | 72° |
| 2026-04-23 22:17 | 7.81572 | 81.69877 | 32368 ft | 501 kts | 72° |
| 2026-04-23 22:18 | 7.82736 | 81.73185 | 32802 ft | 500 kts | 71° |
| 2026-04-23 22:18 | 7.83905 | 81.76487 | 33243 ft | 498 kts | 71° |
| 2026-04-23 22:18 | 7.85068 | 81.79766 | 33670 ft | 497 kts | 71° |
| 2026-04-23 22:18 | 7.86230 | 81.83044 | 34070 ft | 496 kts | 71° |
| 2026-04-23 22:19 | 7.87387 | 81.86312 | 34449 ft | 494 kts | 71° |
| 2026-04-23 22:19 | 7.88525 | 81.89538 | 34732 ft | 496 kts | 71° |
| 2026-04-23 22:19 | 7.90853 | 81.96147 | 34802 ft | 501 kts | 72° |
| 2026-04-23 22:20 | 7.93175 | 82.02742 | 34797 ft | 495 kts | 72° |
| 2026-04-23 22:20 | 7.95474 | 82.09272 | 34811 ft | 493 kts | 72° |
| 2026-04-23 22:21 | 7.97765 | 82.15786 | 34807 ft | 492 kts | 72° |
| 2026-04-23 22:21 | 8.00057 | 82.22305 | 34805 ft | 493 kts | 72° |
| 2026-04-23 22:22 | 8.02347 | 82.28821 | 34800 ft | 493 kts | 72° |
| 2026-04-23 22:22 | 8.04642 | 82.35355 | 34804 ft | 495 kts | 72° |
| 2026-04-23 22:23 | 8.06941 | 82.41907 | 34810 ft | 496 kts | 72° |
| 2026-04-23 22:23 | 8.09232 | 82.48439 | 34804 ft | 497 kts | 72° |
| 2026-04-23 22:24 | 8.11538 | 82.55016 | 34801 ft | 498 kts | 72° |
| 2026-04-23 22:24 | 8.13851 | 82.61618 | 34803 ft | 499 kts | 72° |
| 2026-04-23 22:25 | 8.16166 | 82.68228 | 34809 ft | 500 kts | 72° |
| 2026-04-23 22:25 | 8.18481 | 82.74845 | 34802 ft | 500 kts | 72° |
| 2026-04-23 22:26 | 8.20800 | 82.81476 | 34813 ft | 501 kts | 72° |
| 2026-04-23 22:26 | 8.23117 | 82.88105 | 34800 ft | 501 kts | 72° |
| 2026-04-23 22:27 | 8.25412 | 82.94750 | 34813 ft | 501 kts | 72° |
| 2026-04-23 22:27 | 8.27689 | 83.01392 | 34811 ft | 501 kts | 72° |
| 2026-04-23 22:28 | 8.29971 | 83.08046 | 34806 ft | 502 kts | 72° |
| 2026-04-23 22:28 | 8.32260 | 83.14713 | 34808 ft | 502 kts | 72° |
| 2026-04-23 22:29 | 8.34549 | 83.21380 | 34807 ft | 503 kts | 72° |
| 2026-04-23 22:29 | 8.36837 | 83.28053 | 34801 ft | 503 kts | 72° |
| 2026-04-23 22:30 | 8.39110 | 83.34684 | 34808 ft | 503 kts | 72° |
| 2026-04-23 22:30 | 8.41398 | 83.41363 | 34802 ft | 503 kts | 72° |
| 2026-04-23 22:31 | 8.43684 | 83.48040 | 34812 ft | 504 kts | 72° |
| 2026-04-23 22:31 | 8.45972 | 83.54728 | 34810 ft | 504 kts | 72° |
| 2026-04-23 22:32 | 8.48262 | 83.61420 | 34807 ft | 504 kts | 72° |
| 2026-04-23 22:32 | 8.50550 | 83.68116 | 34802 ft | 504 kts | 72° |
| 2026-04-23 22:33 | 8.52838 | 83.74820 | 34809 ft | 504 kts | 72° |
| 2026-04-23 22:33 | 8.55123 | 83.81513 | 34802 ft | 504 kts | 72° |
| 2026-04-23 22:34 | 8.57407 | 83.88211 | 34814 ft | 504 kts | 72° |
| 2026-04-23 22:34 | 8.59677 | 83.94871 | 34808 ft | 504 kts | 72° |
| 2026-04-23 22:35 | 8.61960 | 84.01572 | 34818 ft | 504 kts | 72° |
| 2026-04-23 22:35 | 8.64240 | 84.08265 | 34821 ft | 504 kts | 72° |
| 2026-04-23 22:36 | 8.66519 | 84.14964 | 34819 ft | 504 kts | 72° |
| 2026-04-23 22:36 | 8.68798 | 84.21668 | 34810 ft | 504 kts | 72° |
| 2026-04-23 22:37 | 8.71078 | 84.28378 | 34813 ft | 505 kts | 72° |
| 2026-04-23 22:37 | 8.73357 | 84.35092 | 34816 ft | 505 kts | 72° |
| 2026-04-23 22:38 | 8.75625 | 84.41775 | 34799 ft | 506 kts | 72° |
| 2026-04-23 22:38 | 8.77907 | 84.48500 | 34812 ft | 506 kts | 72° |
| 2026-04-23 22:39 | 8.80185 | 84.55223 | 34800 ft | 505 kts | 72° |
| 2026-04-23 22:39 | 8.82464 | 84.61952 | 34809 ft | 505 kts | 72° |
| 2026-04-23 22:40 | 8.84739 | 84.68674 | 34806 ft | 505 kts | 72° |
| 2026-04-23 22:41 | 8.88134 | 84.78714 | 34810 ft | 505 kts | 72° |
| 2026-04-23 22:41 | 8.90421 | 84.85425 | 34797 ft | 504 kts | 72° |
| 2026-04-23 22:42 | 8.92729 | 84.92130 | 34816 ft | 504 kts | 72° |
| 2026-04-23 22:42 | 8.95030 | 84.98819 | 34808 ft | 503 kts | 72° |
| 2026-04-23 22:43 | 8.97324 | 85.05507 | 34810 ft | 503 kts | 72° |
| 2026-04-23 22:43 | 8.99614 | 85.12193 | 34818 ft | 503 kts | 72° |
| 2026-04-23 22:44 | 9.01889 | 85.18841 | 34816 ft | 503 kts | 72° |
| 2026-04-23 22:44 | 9.04189 | 85.25563 | 34822 ft | 503 kts | 72° |
| 2026-04-23 22:45 | 9.06457 | 85.32202 | 34813 ft | 503 kts | 72° |
| 2026-04-23 22:45 | 9.08743 | 85.38893 | 34809 ft | 502 kts | 72° |
| 2026-04-23 22:46 | 9.11024 | 85.45575 | 34813 ft | 502 kts | 72° |
| 2026-04-23 22:46 | 9.13305 | 85.52258 | 34815 ft | 502 kts | 72° |
| 2026-04-23 22:47 | 9.15584 | 85.58941 | 34812 ft | 502 kts | 72° |
| 2026-04-23 22:47 | 9.17862 | 85.65628 | 34810 ft | 503 kts | 72° |
| 2026-04-23 22:48 | 9.20140 | 85.72316 | 34820 ft | 503 kts | 72° |
| 2026-04-23 22:48 | 9.22418 | 85.79015 | 34818 ft | 503 kts | 72° |
| 2026-04-23 22:49 | 9.24692 | 85.85701 | 34814 ft | 503 kts | 72° |
| 2026-04-23 22:49 | 9.27001 | 85.92396 | 34815 ft | 503 kts | 72° |
| 2026-04-23 22:50 | 9.29354 | 85.99068 | 34821 ft | 503 kts | 72° |
| 2026-04-23 22:50 | 9.31693 | 86.05700 | 34820 ft | 503 kts | 72° |
| 2026-04-23 22:51 | 9.34036 | 86.12373 | 34814 ft | 502 kts | 72° |
| 2026-04-23 22:51 | 9.36368 | 86.19034 | 34830 ft | 502 kts | 72° |
| 2026-04-23 22:52 | 9.38699 | 86.25694 | 34832 ft | 502 kts | 72° |
| 2026-04-23 22:52 | 9.41029 | 86.32354 | 34812 ft | 502 kts | 72° |
| 2026-04-23 22:53 | 9.43356 | 86.39012 | 34825 ft | 501 kts | 72° |
| 2026-04-23 22:53 | 9.45682 | 86.45671 | 34827 ft | 502 kts | 72° |
| 2026-04-23 22:54 | 9.47992 | 86.52289 | 34830 ft | 502 kts | 72° |
| 2026-04-23 22:54 | 9.50318 | 86.58954 | 34822 ft | 502 kts | 72° |
| 2026-04-23 22:55 | 9.52643 | 86.65623 | 34811 ft | 502 kts | 72° |
| 2026-04-23 22:55 | 9.54966 | 86.72293 | 34829 ft | 502 kts | 72° |
| 2026-04-23 22:56 | 9.57289 | 86.78963 | 34831 ft | 502 kts | 72° |
| 2026-04-23 22:56 | 9.59612 | 86.85638 | 34814 ft | 502 kts | 71° |
| 2026-04-23 22:57 | 9.61932 | 86.92312 | 34819 ft | 502 kts | 71° |
| 2026-04-23 22:57 | 9.64248 | 86.98982 | 34836 ft | 501 kts | 71° |
| 2026-04-23 22:58 | 9.66565 | 87.05657 | 34832 ft | 501 kts | 71° |
| 2026-04-23 22:58 | 9.68878 | 87.12323 | 34835 ft | 501 kts | 71° |
| 2026-04-23 22:59 | 9.70799 | 87.17865 | 34833 ft | 501 kts | 71° |
| 2026-04-23 22:59 | 9.73482 | 87.25609 | 34833 ft | 501 kts | 71° |
| 2026-04-23 23:00 | 9.75787 | 87.32269 | 34833 ft | 501 kts | 71° |
| 2026-04-23 23:00 | 9.77727 | 87.37807 | 34833 ft | 501 kts | 70° |
| 2026-04-23 23:01 | 9.80197 | 87.44421 | 34834 ft | 502 kts | 70° |
| 2026-04-23 23:01 | 9.82702 | 87.51034 | 34834 ft | 502 kts | 70° |
| 2026-04-23 23:02 | 9.85186 | 87.57649 | 34833 ft | 502 kts | 70° |
| 2026-04-23 23:02 | 9.87657 | 87.64275 | 34833 ft | 502 kts | 70° |
| 2026-04-23 23:03 | 9.90126 | 87.70906 | 34835 ft | 503 kts | 70° |
| 2026-04-23 23:03 | 9.92600 | 87.77555 | 34842 ft | 503 kts | 70° |
| 2026-04-23 23:04 | 9.95072 | 87.84202 | 34844 ft | 504 kts | 70° |
| 2026-04-23 23:04 | 9.97545 | 87.90854 | 34842 ft | 504 kts | 70° |
| 2026-04-23 23:05 | 10.00018 | 87.97509 | 34844 ft | 505 kts | 70° |
| 2026-04-23 23:05 | 10.02491 | 88.04170 | 34841 ft | 504 kts | 70° |
| 2026-04-23 23:06 | 10.04945 | 88.10787 | 34843 ft | 504 kts | 70° |
| 2026-04-23 23:06 | 10.07413 | 88.17443 | 34839 ft | 504 kts | 70° |
| 2026-04-23 23:07 | 10.09881 | 88.24106 | 34851 ft | 503 kts | 70° |
| 2026-04-23 23:07 | 10.12338 | 88.30745 | 34850 ft | 503 kts | 70° |
| 2026-04-23 23:08 | 10.14796 | 88.37388 | 34853 ft | 503 kts | 70° |
| 2026-04-23 23:08 | 10.17252 | 88.44030 | 34851 ft | 503 kts | 70° |
| 2026-04-23 23:09 | 10.19708 | 88.50682 | 34852 ft | 503 kts | 70° |
| 2026-04-23 23:09 | 10.22163 | 88.57328 | 34852 ft | 503 kts | 70° |
| 2026-04-23 23:10 | 10.24599 | 88.63931 | 34852 ft | 503 kts | 70° |
| 2026-04-23 23:10 | 10.27051 | 88.70580 | 34854 ft | 503 kts | 70° |
| 2026-04-23 23:11 | 10.29504 | 88.77238 | 34850 ft | 503 kts | 70° |
| 2026-04-23 23:11 | 10.31952 | 88.83888 | 34851 ft | 503 kts | 70° |
| 2026-04-23 23:12 | 10.34401 | 88.90543 | 34852 ft | 502 kts | 70° |
| 2026-04-23 23:12 | 10.36841 | 88.97181 | 34860 ft | 502 kts | 70° |
| 2026-04-23 23:13 | 10.39280 | 89.03822 | 34861 ft | 502 kts | 70° |
| 2026-04-23 23:13 | 10.41718 | 89.10464 | 34861 ft | 502 kts | 70° |
| 2026-04-23 23:14 | 10.44153 | 89.17102 | 34860 ft | 501 kts | 70° |
| 2026-04-23 23:14 | 10.46568 | 89.23693 | 34863 ft | 501 kts | 70° |
| 2026-04-23 23:15 | 10.48996 | 89.30321 | 34859 ft | 500 kts | 70° |
| 2026-04-23 23:15 | 10.51422 | 89.36947 | 34861 ft | 499 kts | 70° |
| 2026-04-23 23:16 | 10.53839 | 89.43555 | 34862 ft | 499 kts | 70° |
| 2026-04-23 23:16 | 10.56260 | 89.50177 | 34860 ft | 499 kts | 70° |
| 2026-04-23 23:17 | 10.58675 | 89.56791 | 34862 ft | 499 kts | 70° |
| 2026-04-23 23:17 | 10.61087 | 89.63402 | 34861 ft | 499 kts | 70° |
| 2026-04-23 23:18 | 10.63501 | 89.70022 | 34861 ft | 499 kts | 70° |
| 2026-04-23 23:18 | 10.65910 | 89.76632 | 34861 ft | 498 kts | 70° |
| 2026-04-23 23:19 | 10.68316 | 89.83242 | 34861 ft | 498 kts | 70° |
| 2026-04-23 23:19 | 10.70722 | 89.89853 | 34861 ft | 498 kts | 70° |
| 2026-04-23 23:20 | 10.73107 | 89.96415 | 34862 ft | 499 kts | 70° |
| 2026-04-23 23:20 | 10.75488 | 90.03038 | 34873 ft | 498 kts | 71° |
| 2026-04-23 23:21 | 10.77775 | 90.09698 | 34870 ft | 498 kts | 71° |
| 2026-04-23 23:21 | 10.80038 | 90.16352 | 34870 ft | 497 kts | 71° |
| 2026-04-23 23:22 | 10.82315 | 90.23010 | 34870 ft | 497 kts | 71° |
| 2026-04-23 23:22 | 10.84589 | 90.29640 | 34870 ft | 497 kts | 71° |
| 2026-04-23 23:23 | 10.86867 | 90.36282 | 34869 ft | 496 kts | 71° |
| 2026-04-23 23:23 | 10.89140 | 90.42914 | 34870 ft | 496 kts | 71° |
| 2026-04-23 23:24 | 10.91395 | 90.49501 | 34873 ft | 496 kts | 71° |
| 2026-04-23 23:24 | 10.93663 | 90.56134 | 34871 ft | 496 kts | 71° |
| 2026-04-23 23:25 | 10.95928 | 90.62759 | 34870 ft | 496 kts | 71° |
| 2026-04-23 23:25 | 10.98195 | 90.69393 | 34871 ft | 496 kts | 71° |
| 2026-04-23 23:26 | 11.00461 | 90.76038 | 34871 ft | 497 kts | 71° |
| 2026-04-23 23:26 | 11.02727 | 90.82682 | 34870 ft | 497 kts | 71° |
| 2026-04-23 23:27 | 11.04996 | 90.89343 | 34879 ft | 497 kts | 71° |
| 2026-04-23 23:27 | 11.07257 | 90.95981 | 34875 ft | 497 kts | 71° |
| 2026-04-23 23:28 | 11.09518 | 91.02628 | 34880 ft | 497 kts | 71° |
| 2026-04-23 23:28 | 11.11763 | 91.09234 | 34882 ft | 497 kts | 71° |
| 2026-04-23 23:29 | 11.14025 | 91.15896 | 34881 ft | 497 kts | 71° |
| 2026-04-23 23:29 | 11.16286 | 91.22556 | 34884 ft | 498 kts | 71° |
| 2026-04-23 23:30 | 11.18544 | 91.29219 | 34878 ft | 498 kts | 71° |
| 2026-04-23 23:30 | 11.20802 | 91.35882 | 34882 ft | 497 kts | 71° |
| 2026-04-23 23:31 | 11.23061 | 91.42553 | 34877 ft | 497 kts | 71° |
| 2026-04-23 23:31 | 11.25314 | 91.49215 | 34883 ft | 497 kts | 71° |
| 2026-04-23 23:32 | 11.27569 | 91.55885 | 34879 ft | 498 kts | 71° |
| 2026-04-23 23:32 | 11.29823 | 91.62562 | 34884 ft | 498 kts | 71° |
| 2026-04-23 23:33 | 11.32066 | 91.69212 | 34878 ft | 499 kts | 71° |
| 2026-04-23 23:33 | 11.34320 | 91.75896 | 34876 ft | 499 kts | 71° |
| 2026-04-23 23:34 | 11.36547 | 91.82593 | 34876 ft | 499 kts | 72° |
| 2026-04-23 23:34 | 11.38640 | 91.89350 | 34877 ft | 499 kts | 73° |
| 2026-04-23 23:35 | 11.40702 | 91.96110 | 34883 ft | 499 kts | 73° |
| 2026-04-23 23:35 | 11.42780 | 92.02867 | 34883 ft | 500 kts | 73° |
| 2026-04-23 23:36 | 11.44868 | 92.09621 | 34877 ft | 500 kts | 72° |
| 2026-04-23 23:36 | 11.46957 | 92.16376 | 34884 ft | 499 kts | 72° |
| 2026-04-23 23:37 | 11.49045 | 92.23135 | 34878 ft | 499 kts | 73° |
| 2026-04-23 23:37 | 11.51112 | 92.29836 | 34882 ft | 499 kts | 73° |
| 2026-04-23 23:38 | 11.53189 | 92.36578 | 34885 ft | 498 kts | 73° |
| 2026-04-23 23:38 | 11.55264 | 92.43317 | 34889 ft | 498 kts | 73° |
| 2026-04-23 23:39 | 11.57337 | 92.50054 | 34890 ft | 498 kts | 73° |
| 2026-04-23 23:39 | 11.59407 | 92.56789 | 34889 ft | 497 kts | 73° |
| 2026-04-23 23:40 | 11.61473 | 92.63522 | 34889 ft | 497 kts | 73° |
| 2026-04-23 23:40 | 11.63540 | 92.70259 | 34891 ft | 497 kts | 73° |
| 2026-04-23 23:41 | 11.65799 | 92.76913 | 34890 ft | 496 kts | 66° |
| 2026-04-23 23:41 | 11.68686 | 92.83314 | 34892 ft | 497 kts | 65° |
| 2026-04-23 23:42 | 11.71614 | 92.89694 | 34888 ft | 496 kts | 65° |
| 2026-04-23 23:42 | 11.74490 | 92.96045 | 34888 ft | 495 kts | 65° |
| 2026-04-23 23:43 | 11.77356 | 93.02434 | 34891 ft | 495 kts | 65° |
| 2026-04-23 23:43 | 11.80215 | 93.08827 | 34888 ft | 494 kts | 65° |
| 2026-04-23 23:44 | 11.83070 | 93.15208 | 34887 ft | 494 kts | 65° |
| 2026-04-23 23:44 | 11.85924 | 93.21587 | 34881 ft | 494 kts | 65° |
| 2026-04-23 23:45 | 11.88774 | 93.27963 | 34882 ft | 494 kts | 65° |
| 2026-04-23 23:45 | 11.91621 | 93.34340 | 34876 ft | 493 kts | 65° |
| 2026-04-23 23:46 | 11.94463 | 93.40707 | 34882 ft | 493 kts | 65° |
| 2026-04-23 23:46 | 11.97309 | 93.47085 | 34887 ft | 494 kts | 65° |
| 2026-04-23 23:47 | 12.00152 | 93.53465 | 34876 ft | 493 kts | 66° |
| 2026-04-23 23:47 | 12.02977 | 93.59810 | 34875 ft | 493 kts | 65° |
| 2026-04-23 23:48 | 12.05822 | 93.66201 | 34882 ft | 494 kts | 65° |
| 2026-04-23 23:48 | 12.08662 | 93.72589 | 34877 ft | 494 kts | 66° |
| 2026-04-23 23:49 | 12.12439 | 93.81089 | 34877 ft | 494 kts | 66° |
| 2026-04-23 23:49 | 12.15279 | 93.87488 | 34876 ft | 494 kts | 66° |
| 2026-04-23 23:50 | 12.18115 | 93.93879 | 34876 ft | 494 kts | 66° |
| 2026-04-23 23:50 | 12.20946 | 94.00268 | 34876 ft | 493 kts | 66° |
| 2026-04-23 23:51 | 12.23788 | 94.06648 | 34881 ft | 493 kts | 65° |
| 2026-04-23 23:51 | 12.26667 | 94.13009 | 34878 ft | 493 kts | 65° |
| 2026-04-23 23:52 | 12.29553 | 94.19385 | 34883 ft | 493 kts | 65° |
| 2026-04-23 23:52 | 12.32428 | 94.25758 | 34882 ft | 493 kts | 65° |
| 2026-04-23 23:53 | 12.35298 | 94.32135 | 34872 ft | 494 kts | 65° |
| 2026-04-23 23:53 | 12.38150 | 94.38474 | 34872 ft | 494 kts | 65° |
| 2026-04-23 23:54 | 12.41026 | 94.44857 | 34870 ft | 494 kts | 65° |
| 2026-04-23 23:54 | 12.43916 | 94.51239 | 34870 ft | 494 kts | 65° |
| 2026-04-23 23:55 | 12.46807 | 94.57624 | 34870 ft | 495 kts | 65° |
| 2026-04-23 23:55 | 12.49698 | 94.64020 | 34871 ft | 495 kts | 65° |
| 2026-04-23 23:56 | 12.52583 | 94.70412 | 34869 ft | 495 kts | 65° |
| 2026-04-23 23:56 | 12.55449 | 94.76764 | 34871 ft | 495 kts | 65° |
| 2026-04-23 23:57 | 12.58331 | 94.83159 | 34869 ft | 495 kts | 65° |
| 2026-04-23 23:57 | 12.61214 | 94.89559 | 34871 ft | 494 kts | 65° |
| 2026-04-23 23:58 | 12.64088 | 94.95943 | 34870 ft | 494 kts | 65° |
| 2026-04-23 23:58 | 12.66961 | 95.02332 | 34870 ft | 494 kts | 65° |
| 2026-04-23 23:59 | 12.69835 | 95.08723 | 34865 ft | 494 kts | 65° |
| 2026-04-23 23:59 | 12.72710 | 95.15125 | 34867 ft | 494 kts | 65° |
| 2026-04-24 00:00 | 12.75576 | 95.21515 | 34861 ft | 494 kts | 65° |
| 2026-04-24 00:00 | 12.78445 | 95.27915 | 34862 ft | 494 kts | 65° |
| 2026-04-24 00:01 | 12.81294 | 95.34275 | 34861 ft | 494 kts | 65° |
| 2026-04-24 00:01 | 12.84161 | 95.40679 | 34862 ft | 494 kts | 66° |
| 2026-04-24 00:02 | 12.87028 | 95.47086 | 34863 ft | 494 kts | 66° |
| 2026-04-24 00:02 | 12.89924 | 95.53480 | 34873 ft | 495 kts | 65° |
| 2026-04-24 00:03 | 12.92853 | 95.59865 | 34870 ft | 495 kts | 65° |
| 2026-04-24 00:03 | 12.95781 | 95.66256 | 34870 ft | 495 kts | 65° |
| 2026-04-24 00:04 | 12.98707 | 95.72660 | 34872 ft | 495 kts | 65° |
| 2026-04-24 00:04 | 13.01627 | 95.79065 | 34861 ft | 496 kts | 65° |
| 2026-04-24 00:05 | 13.04531 | 95.85442 | 34862 ft | 496 kts | 65° |
| 2026-04-24 00:05 | 13.07453 | 95.91859 | 34861 ft | 497 kts | 65° |
| 2026-04-24 00:06 | 13.10372 | 95.98281 | 34861 ft | 497 kts | 65° |
| 2026-04-24 00:06 | 13.13299 | 96.04722 | 34861 ft | 497 kts | 65° |
| 2026-04-24 00:07 | 13.16220 | 96.11154 | 34851 ft | 497 kts | 65° |
| 2026-04-24 00:07 | 13.19111 | 96.17536 | 34875 ft | 496 kts | 65° |
| 2026-04-24 00:08 | 13.22046 | 96.23997 | 34877 ft | 496 kts | 65° |
| 2026-04-24 00:08 | 13.24943 | 96.30381 | 34881 ft | 497 kts | 65° |
| 2026-04-24 00:09 | 13.27855 | 96.36819 | 34880 ft | 497 kts | 65° |
| 2026-04-24 00:09 | 13.30768 | 96.43263 | 34882 ft | 498 kts | 65° |
| 2026-04-24 00:10 | 13.33680 | 96.49707 | 34878 ft | 498 kts | 65° |
| 2026-04-24 00:10 | 13.36593 | 96.56161 | 34880 ft | 498 kts | 65° |
| 2026-04-24 00:11 | 13.39504 | 96.62610 | 34878 ft | 498 kts | 65° |
| 2026-04-24 00:11 | 13.42404 | 96.69039 | 34880 ft | 498 kts | 65° |
| 2026-04-24 00:12 | 13.45313 | 96.75494 | 34879 ft | 498 kts | 65° |
| 2026-04-24 00:12 | 13.48214 | 96.81939 | 34877 ft | 497 kts | 65° |
| 2026-04-24 00:13 | 13.51118 | 96.88394 | 34884 ft | 497 kts | 65° |
| 2026-04-24 00:13 | 13.54014 | 96.94840 | 34882 ft | 497 kts | 65° |
| 2026-04-24 00:14 | 13.56903 | 97.01273 | 34876 ft | 496 kts | 65° |
| 2026-04-24 00:14 | 13.59790 | 97.07706 | 34879 ft | 494 kts | 65° |
| 2026-04-24 00:15 | 13.62664 | 97.14117 | 34878 ft | 494 kts | 65° |
| 2026-04-24 00:15 | 13.65537 | 97.20530 | 34882 ft | 493 kts | 65° |
| 2026-04-24 00:16 | 13.68405 | 97.26936 | 34877 ft | 493 kts | 65° |
| 2026-04-24 00:16 | 13.71268 | 97.33338 | 34878 ft | 493 kts | 65° |
| 2026-04-24 00:17 | 13.74129 | 97.39738 | 34879 ft | 492 kts | 65° |
| 2026-04-24 00:17 | 13.76987 | 97.46141 | 34883 ft | 492 kts | 65° |
| 2026-04-24 00:18 | 13.79842 | 97.52542 | 34876 ft | 492 kts | 65° |
| 2026-04-24 00:18 | 13.82693 | 97.58937 | 34880 ft | 492 kts | 65° |
| 2026-04-24 00:19 | 13.85545 | 97.65340 | 34877 ft | 492 kts | 65° |
| 2026-04-24 00:19 | 13.88380 | 97.71710 | 34869 ft | 493 kts | 65° |
| 2026-04-24 00:20 | 13.91231 | 97.78125 | 34862 ft | 493 kts | 65° |
| 2026-04-24 00:20 | 13.94083 | 97.84544 | 34861 ft | 493 kts | 65° |
| 2026-04-24 00:21 | 13.96933 | 97.90962 | 34877 ft | 493 kts | 65° |
| 2026-04-24 00:21 | 13.99780 | 97.97381 | 34884 ft | 493 kts | 65° |
| 2026-04-24 00:22 | 14.02631 | 98.03815 | 34859 ft | 494 kts | 65° |
| 2026-04-24 00:22 | 14.05480 | 98.10250 | 34874 ft | 494 kts | 65° |
| 2026-04-24 00:23 | 14.08307 | 98.16642 | 34864 ft | 493 kts | 65° |
| 2026-04-24 00:23 | 14.10860 | 98.23193 | 34867 ft | 493 kts | 73° |
| 2026-04-24 00:24 | 14.12631 | 98.29989 | 34847 ft | 481 kts | 75° |
| 2026-04-24 00:24 | 14.13463 | 98.33263 | 34852 ft | 465 kts | 75° |
| 2026-04-24 00:24 | 14.14287 | 98.36470 | 34721 ft | 465 kts | 74° |
| 2026-04-24 00:25 | 14.15130 | 98.39703 | 34272 ft | 468 kts | 74° |
| 2026-04-24 00:25 | 14.15980 | 98.42937 | 33810 ft | 465 kts | 74° |
| 2026-04-24 00:25 | 14.16824 | 98.46132 | 33340 ft | 461 kts | 74° |
| 2026-04-24 00:25 | 14.17665 | 98.49316 | 32870 ft | 458 kts | 74° |
| 2026-04-24 00:26 | 14.18499 | 98.52472 | 32404 ft | 455 kts | 74° |
| 2026-04-24 00:26 | 14.19325 | 98.55605 | 31933 ft | 452 kts | 74° |
| 2026-04-24 00:26 | 14.20144 | 98.58710 | 31473 ft | 449 kts | 74° |
| 2026-04-24 00:26 | 14.20959 | 98.61809 | 31008 ft | 446 kts | 74° |
| 2026-04-24 00:27 | 14.21766 | 98.64875 | 30548 ft | 443 kts | 74° |
| 2026-04-24 00:27 | 14.22568 | 98.67928 | 30082 ft | 440 kts | 74° |
| 2026-04-24 00:27 | 14.23365 | 98.70962 | 29627 ft | 437 kts | 74° |
| 2026-04-24 00:27 | 14.24158 | 98.73977 | 29161 ft | 434 kts | 74° |
| 2026-04-24 00:28 | 14.24945 | 98.76971 | 28702 ft | 431 kts | 74° |
| 2026-04-24 00:28 | 14.25728 | 98.79945 | 28231 ft | 428 kts | 74° |
| 2026-04-24 00:28 | 14.26497 | 98.82868 | 27773 ft | 426 kts | 74° |
| 2026-04-24 00:28 | 14.27269 | 98.85806 | 27315 ft | 423 kts | 74° |
| 2026-04-24 00:29 | 14.28037 | 98.88727 | 26876 ft | 421 kts | 74° |
| 2026-04-24 00:29 | 14.28800 | 98.91636 | 26400 ft | 418 kts | 74° |
| 2026-04-24 00:29 | 14.29556 | 98.94527 | 25954 ft | 415 kts | 75° |
| 2026-04-24 00:29 | 14.30021 | 98.97450 | 25501 ft | 413 kts | 86° |
| 2026-04-24 00:30 | 14.29979 | 99.00398 | 25071 ft | 410 kts | 95° |
| 2026-04-24 00:30 | 14.29501 | 99.03285 | 24625 ft | 408 kts | 104° |
| 2026-04-24 00:30 | 14.28784 | 99.06095 | 24202 ft | 405 kts | 105° |
| 2026-04-24 00:30 | 14.28049 | 99.08891 | 23765 ft | 403 kts | 105° |
| 2026-04-24 00:31 | 14.27319 | 99.11679 | 23329 ft | 401 kts | 104° |
| 2026-04-24 00:31 | 14.26603 | 99.14443 | 22894 ft | 399 kts | 104° |
| 2026-04-24 00:31 | 14.25905 | 99.17168 | 22469 ft | 396 kts | 104° |
| 2026-04-24 00:31 | 14.25201 | 99.19938 | 22039 ft | 394 kts | 104° |
| 2026-04-24 00:32 | 14.24521 | 99.22625 | 21628 ft | 391 kts | 104° |
| 2026-04-24 00:32 | 14.23838 | 99.25332 | 21189 ft | 389 kts | 104° |
| 2026-04-24 00:32 | 14.23159 | 99.28023 | 20763 ft | 386 kts | 104° |
| 2026-04-24 00:32 | 14.22484 | 99.30695 | 20337 ft | 384 kts | 104° |
| 2026-04-24 00:33 | 14.21814 | 99.33349 | 19914 ft | 381 kts | 104° |
| 2026-04-24 00:33 | 14.21148 | 99.35983 | 19492 ft | 378 kts | 104° |
| 2026-04-24 00:33 | 14.20487 | 99.38597 | 19071 ft | 376 kts | 104° |
| 2026-04-24 00:33 | 14.19830 | 99.41192 | 18649 ft | 373 kts | 104° |
| 2026-04-24 00:34 | 14.19177 | 99.43768 | 18230 ft | 370 kts | 104° |
| 2026-04-24 00:34 | 14.18534 | 99.46306 | 17802 ft | 360 kts | 104° |
| 2026-04-24 00:34 | 14.18061 | 99.48811 | 17401 ft | 355 kts | 95° |
| 2026-04-24 00:34 | 14.18013 | 99.51342 | 17012 ft | 351 kts | 86° |
| 2026-04-24 00:35 | 14.18311 | 99.53825 | 16623 ft | 348 kts | 81° |
| 2026-04-24 00:35 | 14.18704 | 99.56244 | 16230 ft | 345 kts | 80° |
| 2026-04-24 00:35 | 14.19101 | 99.58671 | 15849 ft | 342 kts | 80° |
| 2026-04-24 00:35 | 14.19493 | 99.61076 | 15461 ft | 339 kts | 81° |
| 2026-04-24 00:36 | 14.19878 | 99.63461 | 15082 ft | 336 kts | 81° |
| 2026-04-24 00:36 | 14.20256 | 99.65827 | 14702 ft | 333 kts | 81° |
| 2026-04-24 00:36 | 14.20629 | 99.68172 | 14328 ft | 330 kts | 81° |
| 2026-04-24 00:36 | 14.20996 | 99.70495 | 13957 ft | 327 kts | 81° |
| 2026-04-24 00:37 | 14.21360 | 99.72798 | 13586 ft | 324 kts | 81° |
| 2026-04-24 00:37 | 14.21718 | 99.75073 | 13214 ft | 321 kts | 81° |
| 2026-04-24 00:37 | 14.22077 | 99.77360 | 12850 ft | 317 kts | 81° |
| 2026-04-24 00:37 | 14.22423 | 99.79556 | 12493 ft | 314 kts | 81° |
| 2026-04-24 00:38 | 14.22769 | 99.81759 | 12206 ft | 308 kts | 81° |
| 2026-04-24 00:38 | 14.23108 | 99.83921 | 11913 ft | 303 kts | 81° |
| 2026-04-24 00:38 | 14.23441 | 99.86045 | 11575 ft | 299 kts | 81° |
| 2026-04-24 00:38 | 14.23771 | 99.88150 | 11244 ft | 297 kts | 81° |
| 2026-04-24 00:39 | 14.24101 | 99.90257 | 10914 ft | 299 kts | 81° |
| 2026-04-24 00:39 | 14.24434 | 99.92383 | 10623 ft | 300 kts | 81° |
| 2026-04-24 00:39 | 14.24764 | 99.94492 | 10393 ft | 295 kts | 81° |
| 2026-04-24 00:39 | 14.25088 | 99.96559 | 10086 ft | 290 kts | 81° |
| 2026-04-24 00:40 | 14.25408 | 99.98613 | 9649 ft | 291 kts | 82° |
| 2026-04-24 00:40 | 14.25729 | 100.00671 | 9232 ft | 290 kts | 82° |
| 2026-04-24 00:40 | 14.26049 | 100.02719 | 8852 ft | 288 kts | 82° |
| 2026-04-24 00:40 | 14.26365 | 100.04754 | 8459 ft | 287 kts | 82° |
| 2026-04-24 00:41 | 14.26539 | 100.06097 | 8173 ft | 283 kts | 89° |
| 2026-04-24 00:41 | 14.26412 | 100.08144 | 7683 ft | 283 kts | 99° |
| 2026-04-24 00:41 | 14.26121 | 100.10120 | 7293 ft | 282 kts | 100° |
| 2026-04-24 00:41 | 14.25828 | 100.12106 | 6998 ft | 275 kts | 100° |
| 2026-04-24 00:42 | 14.25570 | 100.13983 | 6991 ft | 257 kts | 99° |
| 2026-04-24 00:42 | 14.25335 | 100.15785 | 6996 ft | 255 kts | 99° |
| 2026-04-24 00:42 | 14.25099 | 100.17614 | 7013 ft | 258 kts | 99° |
| 2026-04-24 00:42 | 14.24865 | 100.19450 | 6988 ft | 252 kts | 99° |
| 2026-04-24 00:43 | 14.24643 | 100.21207 | 6991 ft | 250 kts | 99° |
| 2026-04-24 00:43 | 14.24419 | 100.22989 | 6999 ft | 251 kts | 99° |
| 2026-04-24 00:43 | 14.24196 | 100.24781 | 7018 ft | 252 kts | 99° |
| 2026-04-24 00:43 | 14.23971 | 100.26584 | 7013 ft | 255 kts | 99° |
| 2026-04-24 00:44 | 14.23744 | 100.28399 | 6997 ft | 256 kts | 99° |
| 2026-04-24 00:44 | 14.23514 | 100.30218 | 6996 ft | 256 kts | 99° |
| 2026-04-24 00:44 | 14.23284 | 100.32037 | 7016 ft | 256 kts | 99° |
| 2026-04-24 00:44 | 14.23057 | 100.33851 | 7018 ft | 254 kts | 99° |
| 2026-04-24 00:45 | 14.22831 | 100.35648 | 7011 ft | 252 kts | 99° |
| 2026-04-24 00:45 | 14.22608 | 100.37438 | 6992 ft | 252 kts | 99° |
| 2026-04-24 00:45 | 14.22385 | 100.39221 | 6973 ft | 251 kts | 99° |
| 2026-04-24 00:45 | 14.22164 | 100.40990 | 6806 ft | 246 kts | 99° |
| 2026-04-24 00:46 | 14.21948 | 100.42699 | 6616 ft | 236 kts | 99° |
| 2026-04-24 00:46 | 14.21738 | 100.44366 | 6483 ft | 235 kts | 99° |
| 2026-04-24 00:46 | 14.21527 | 100.46038 | 6411 ft | 233 kts | 99° |
| 2026-04-24 00:46 | 14.21320 | 100.47691 | 6362 ft | 234 kts | 99° |
| 2026-04-24 00:47 | 14.21108 | 100.49362 | 6237 ft | 235 kts | 99° |
| 2026-04-24 00:47 | 14.20900 | 100.51015 | 6086 ft | 230 kts | 99° |
| 2026-04-24 00:47 | 14.20694 | 100.52645 | 5948 ft | 228 kts | 99° |
| 2026-04-24 00:47 | 14.20494 | 100.54236 | 5830 ft | 226 kts | 99° |
| 2026-04-24 00:48 | 14.20290 | 100.55839 | 5704 ft | 225 kts | 99° |
| 2026-04-24 00:48 | 14.20089 | 100.57436 | 5566 ft | 224 kts | 99° |
| 2026-04-24 00:48 | 14.19888 | 100.59023 | 5445 ft | 222 kts | 99° |
| 2026-04-24 00:48 | 14.19689 | 100.60594 | 5307 ft | 220 kts | 99° |
| 2026-04-24 00:49 | 14.19489 | 100.62165 | 5196 ft | 222 kts | 99° |
| 2026-04-24 00:49 | 14.19286 | 100.63751 | 5077 ft | 224 kts | 99° |
| 2026-04-24 00:49 | 14.19035 | 100.65295 | 4932 ft | 212 kts | 112° |
| 2026-04-24 00:49 | 14.18183 | 100.66454 | 4814 ft | 202 kts | 148° |
| 2026-04-24 00:50 | 14.16913 | 100.67041 | 4705 ft | 201 kts | 164° |
| 2026-04-24 00:50 | 14.15544 | 100.67440 | 4509 ft | 207 kts | 166° |
| 2026-04-24 00:50 | 14.14175 | 100.67821 | 4266 ft | 199 kts | 166° |
| 2026-04-24 00:50 | 14.12872 | 100.68185 | 4056 ft | 189 kts | 166° |
| 2026-04-24 00:51 | 14.11616 | 100.68538 | 3885 ft | 188 kts | 166° |
| 2026-04-24 00:51 | 14.10373 | 100.68889 | 3764 ft | 185 kts | 166° |
| 2026-04-24 00:51 | 14.09127 | 100.69242 | 3602 ft | 187 kts | 166° |
| 2026-04-24 00:51 | 14.07852 | 100.69403 | 3307 ft | 186 kts | 194° |
| 2026-04-24 00:52 | 14.06688 | 100.68926 | 3134 ft | 184 kts | 202° |
| 2026-04-24 00:52 | 14.05511 | 100.68419 | 2851 ft | 180 kts | 204° |
| 2026-04-24 00:52 | 14.04413 | 100.67862 | 2609 ft | 169 kts | 207° |
| 2026-04-24 00:52 | 14.03414 | 100.67312 | 2400 ft | 159 kts | 207° |
| 2026-04-24 00:53 | 14.02458 | 100.66772 | 2217 ft | 154 kts | 208° |
| 2026-04-24 00:53 | 14.01509 | 100.66241 | 1994 ft | 156 kts | 207° |
| 2026-04-24 00:53 | 14.00568 | 100.65704 | 1748 ft | 152 kts | 208° |
| 2026-04-24 00:53 | 13.99654 | 100.65180 | 1436 ft | 148 kts | 207° |
| 2026-04-24 00:54 | 13.98745 | 100.64688 | 1309 ft | 147 kts | 207° |
| 2026-04-24 00:54 | 13.97850 | 100.64186 | 1229 ft | 147 kts | 208° |
| 2026-04-24 00:54 | 13.96942 | 100.63674 | 1091 ft | 149 kts | 207° |
| 2026-04-24 00:54 | 13.96025 | 100.63163 | 895 ft | 149 kts | 207° |
| 2026-04-24 00:55 | 13.95112 | 100.62644 | 644 ft | 149 kts | 208° |
| 2026-04-24 00:55 | 13.94208 | 100.62134 | 411 ft | 148 kts | 208° |
| 2026-04-24 00:55 | 13.93309 | 100.61618 | 200 ft | 149 kts | 207° |
| 2026-04-24 00:55 | 13.92401 | 100.61109 | 42 ft | 149 kts | 207° |
| 2026-04-24 00:56 | 13.91545 | 100.60633 | 15 ft | 124 kts | 209° |
| 2026-04-24 00:56 | 13.90954 | 100.60297 | 19 ft | 70 kts | 208° |
| 2026-04-24 00:56 | 13.90749 | 100.60178 | 18 ft | 14 kts | 215° |
| 2026-04-24 00:56 | 13.90675 | 100.60116 | 18 ft | 14 kts | 226° |
| 2026-04-24 00:57 | 13.90612 | 100.60034 | 17 ft | 10 kts | 234° |
| 2026-04-24 00:57 | 13.90584 | 100.59988 | 17 ft | 8 kts | 241° |
| 2026-04-24 00:57 | 13.90535 | 100.59894 | 17 ft | 6 kts | 241° |
| 2026-04-24 00:58 | 13.90513 | 100.59855 | 19 ft | 6 kts | 239° |
| 2026-04-24 00:58 | 13.90492 | 100.59817 | 17 ft | 6 kts | 244° |
| 2026-04-24 00:58 | 13.90486 | 100.59775 | 18 ft | 6 kts | 274° |
| 2026-04-24 00:58 | 13.90501 | 100.59737 | 18 ft | 6 kts | 303° |
| 2026-04-24 00:59 | 13.90525 | 100.59709 | 18 ft | 4 kts | 312° |
| 2026-04-24 00:59 | 13.90545 | 100.59684 | 19 ft | 4 kts | 307° |
| 2026-04-24 00:59 | 13.90556 | 100.59670 | 18 ft | 3 kts | 310° |
| 2026-04-24 00:59 | 13.90568 | 100.59653 | 18 ft | 3 kts | 303° |
| 2026-04-24 01:00 | 13.90578 | 100.59637 | 18 ft | 3 kts | 302° |
| 2026-04-24 01:00 | 13.90580 | 100.59634 | 18 ft | 0 kts | 302° |